Time;durP1;ratioP1;P1;durP2;ratioP2;P2;SDS_P1;SDS_P2;PMS_P1;PMS_P2;Temp;Humidity;BMP_temperature;BMP_pressure;BME280_temperature;BME280_humidity;BME280_pressure;Samples;Min_cycle;Max_cycle;Signal;HPM_P1;HPM_P2
2022/04/18 00:00:17;;;;;;;24.65;14.98;;;7.20;67.80;;;;;;6046333;23;20010;-84
2022/04/18 00:02:43;;;;;;;22.83;14.32;;;7.20;68.60;;;;;;6045381;23;20025;-84
2022/04/18 00:05:09;;;;;;;23.30;14.25;;;7.20;69.60;;;;;;6046473;23;20014;-85
2022/04/18 00:07:35;;;;;;;23.15;13.68;;;7.10;69.70;;;;;;6046222;23;20077;-84
2022/04/18 00:10:01;;;;;;;23.45;14.70;;;7.10;69.90;;;;;;6069791;23;20068;-84
2022/04/18 00:12:28;;;;;;;24.70;14.82;;;7.10;70.60;;;;;;6047388;23;20029;-84
2022/04/18 00:14:54;;;;;;;24.08;14.23;;;7.00;70.90;;;;;;6046906;23;20097;-83
2022/04/18 00:17:20;;;;;;;26.58;14.85;;;7.00;71.40;;;;;;6054298;23;20452;-85
2022/04/18 00:19:46;;;;;;;33.05;15.70;;;7.00;71.90;;;;;;6045321;23;20089;-85
2022/04/18 00:22:11;;;;;;;25.52;14.88;;;6.90;73.30;;;;;;6069488;23;20018;-85
2022/04/18 00:24:37;;;;;;;20.75;13.35;;;6.90;73.90;;;;;;6045933;23;20092;-84
2022/04/18 00:27:04;;;;;;;22.67;14.07;;;6.90;74.30;;;;;;6044607;23;20098;-85
2022/04/18 00:29:30;;;;;;;21.83;13.35;;;6.90;74.60;;;;;;6069828;23;20018;-84
2022/04/18 00:31:56;;;;;;;22.10;14.25;;;;;;;;;;6045774;23;20009;-85
2022/04/18 00:34:22;;;;;;;21.88;13.38;;;;;;;;;;6069487;23;20091;-84
2022/04/18 00:36:49;;;;;;;26.05;15.18;;;;;;;;;;6067506;23;20014;-84
2022/04/18 00:39:15;;;;;;;22.05;13.20;;;;;;;;;;6070245;23;20096;-85
2022/04/18 00:41:41;;;;;;;22.25;13.73;;;;;;;;;;6093366;23;20068;-84
2022/04/18 00:44:07;;;;;;;23.75;13.60;;;;;;;;;;6095100;23;20050;-83
2022/04/18 00:46:33;;;;;;;21.25;12.77;;;;;;;;;;6071470;23;20010;-86
2022/04/18 00:48:59;;;;;;;26.13;14.15;;;;;;;;;;6094901;23;20025;-84
2022/04/18 00:51:28;;;;;;;23.38;13.90;;;;;;;;;;6097429;23;20014;-84
2022/04/18 00:53:55;;;;;;;22.23;13.98;;;;;;;;;;6096064;23;20131;-85
2022/04/18 00:56:22;;;;;;;23.40;13.65;;;;;;;;;;6094842;23;20070;-85
2022/04/18 00:58:49;;;;;;;20.17;13.18;;;;;;;;;;6071672;23;20021;-85
2022/04/18 01:01:15;;;;;;;24.17;13.85;;;;;;;;;;6071699;23;20647;-84
2022/04/18 01:03:42;;;;;;;22.67;14.10;;;;;;;;;;6094673;23;20021;-84
2022/04/18 01:06:08;;;;;;;20.38;13.23;;;;;;;;;;6095956;23;20355;-84
2022/04/18 01:08:35;;;;;;;20.85;13.57;;;;;;;;;;6071038;23;20014;-84
2022/04/18 01:11:01;;;;;;;22.95;13.35;;;;;;;;;;6095731;23;20013;-84
2022/04/18 01:13:28;;;;;;;23.95;13.60;;;;;;;;;;6071825;23;20214;-84
2022/04/18 01:15:55;;;;;;;22.83;13.32;;;;;;;;;;6095650;23;20022;-85
2022/04/18 01:18:21;;;;;;;20.75;13.05;;;;;;;;;;6094608;23;20024;-85
2022/04/18 01:20:47;;;;;;;21.73;13.25;;;;;;;;;;6094177;23;20025;-84
2022/04/18 01:23:14;;;;;;;24.30;12.98;;;;;;;;;;6071435;23;20014;-85
2022/04/18 01:31:09;;;;;;;22.73;13.70;;;;;;;;;;6073514;23;20018;-85
2022/04/18 01:33:35;;;;;;;25.00;13.43;;;;;;;;;;6071794;23;20692;-84
2022/04/18 01:36:02;;;;;;;23.80;13.02;;;;;;;;;;6071214;23;20455;-84
2022/04/18 01:38:28;;;;;;;20.98;12.60;;;;;;;;;;6075548;23;20019;-85
2022/04/18 01:40:54;;;;;;;22.08;13.15;;;;;;;;;;6075725;23;20029;-85
2022/04/18 01:43:20;;;;;;;23.02;13.73;;;;;;;;;;6076419;23;20017;-85
2022/04/18 01:45:46;;;;;;;21.45;12.50;;;;;;;;;;6099581;23;20028;-85
2022/04/18 01:48:13;;;;;;;23.27;12.90;;;;;;;;;;6075675;23;20025;-85
2022/04/18 01:50:39;;;;;;;20.27;13.40;;;;;;;;;;6100471;23;20009;-85
2022/04/18 01:53:06;;;;;;;22.08;12.60;;;;;;;;;;6099041;23;20021;-85
2022/04/18 01:55:32;;;;;;;21.30;12.70;;;;;;;;;;6100509;23;20017;-84
2022/04/18 01:57:58;;;;;;;21.75;12.77;;;;;;;;;;6076171;23;20075;-84
2022/04/18 02:00:24;;;;;;;22.55;12.60;;;;;;;;;;6100796;23;20076;-85
2022/04/18 02:02:50;;;;;;;22.40;13.07;;;;;;;;;;6106029;23;20052;-85
2022/04/18 02:05:16;;;;;;;20.13;12.98;;;;;;;;;;6099934;23;20018;-85
2022/04/18 02:07:43;;;;;;;20.27;12.75;;;;;;;;;;6099767;23;20076;-85
2022/04/18 02:10:09;;;;;;;22.95;12.60;;;;;;;;;;6100049;23;20051;-85
2022/04/18 02:12:35;;;;;;;18.15;12.00;;;;;;;;;;6100901;23;20017;-85
2022/04/18 02:15:01;;;;;;;21.63;12.48;;;;;;;;;;6101225;23;20014;-84
2022/04/18 02:17:27;;;;;;;22.85;13.48;;;;;;;;;;6075463;23;20017;-85
2022/04/18 02:19:53;;;;;;;21.45;12.93;;;;;;;;;;6099965;23;20024;-84
2022/04/18 02:22:22;;;;;;;25.17;14.02;;;;;;;;;;6075077;23;20068;-85
2022/04/18 02:24:48;;;;;;;23.67;12.98;;;;;;;;;;6100581;23;20075;-84
2022/04/18 02:27:14;;;;;;;21.05;13.10;;;;;;;;;;6099079;23;20100;-85
2022/04/18 02:29:41;;;;;;;21.85;13.25;;;;;;;;;;6100281;23;20025;-85
2022/04/18 02:34:52;;;;;;;22.15;13.40;;;;;;;;;;6103865;23;20096;-84
2022/04/18 02:37:18;;;;;;;20.85;13.00;;;;;;;;;;6104755;23;20568;-85
2022/04/18 02:39:44;;;;;;;19.88;12.63;;;;;;;;;;6124004;23;20050;-84
2022/04/18 02:42:10;;;;;;;24.30;13.13;;;;;;;;;;6076167;23;20022;-84
2022/04/18 02:44:36;;;;;;;22.45;13.07;;;;;;;;;;6100626;23;20100;-84
2022/04/18 02:47:03;;;;;;;20.77;12.95;;;;;;;;;;6099330;23;20041;-85
2022/04/18 02:49:30;;;;;;;23.70;13.35;;;;;;;;;;6100065;23;20096;-84
2022/04/18 02:51:57;;;;;;;24.70;13.82;;;;;;;;;;6075279;23;20806;-85
2022/04/18 02:54:23;;;;;;;19.17;12.18;;;;;;;;;;6124062;23;20100;-85
2022/04/18 02:56:49;;;;;;;21.08;12.90;;;;;;;;;;6100628;23;20025;-86
2022/04/18 02:59:15;;;;;;;21.63;13.18;;;;;;;;;;6099178;23;20099;-85
2022/04/18 03:01:41;;;;;;;20.83;13.18;;;;;;;;;;6075732;23;20447;-85
2022/04/18 03:04:08;;;;;;;20.15;12.88;;;;;;;;;;6100059;23;20237;-85
2022/04/18 03:06:34;;;;;;;23.73;13.20;;;;;;;;;;6100617;23;20350;-85
2022/04/18 03:09:00;;;;;;;20.90;12.63;;;;;;;;;;6099898;23;20414;-85
2022/04/18 03:11:26;;;;;;;24.25;12.98;;;;;;;;;;6101424;23;20013;-84
2022/04/18 03:13:52;;;;;;;23.60;13.10;;;;;;;;;;6100678;23;20018;-85
2022/04/18 03:16:18;;;;;;;22.67;12.85;;;;;;;;;;6101087;23;20024;-85
2022/04/18 03:18:44;;;;;;;22.42;12.38;;;;;;;;;;6075996;23;20014;-85
2022/04/18 03:21:12;;;;;;;22.55;12.65;;;;;;;;;;6101254;23;20013;-85
2022/04/18 03:23:39;;;;;;;22.27;13.23;;;;;;;;;;6077509;23;20013;-84
2022/04/18 03:26:08;;;;;;;29.58;13.98;;;;;;;;;;6076466;23;20041;-84
2022/04/18 03:28:34;;;;;;;23.95;12.80;;;;;;;;;;6077206;23;20028;-84
2022/04/18 03:31:00;;;;;;;24.40;12.70;;;;;;;;;;6076851;23;20063;-85
2022/04/18 03:33:26;;;;;;;25.73;14.25;;;;;;;;;;6100927;23;20059;-85
2022/04/18 03:41:21;;;;;;;21.92;13.73;;;;;;;;;;6104507;23;20022;-85
2022/04/18 03:43:50;;;;;;;21.15;12.55;;;;;;;;;;6100127;23;20017;-85
2022/04/18 03:46:16;;;;;;;21.08;13.27;;;;;;;;;;6078093;23;20013;-85
2022/04/18 03:48:42;;;;;;;22.27;13.57;;;;;;;;;;6100304;23;20017;-85
2022/04/18 03:51:08;;;;;;;24.65;13.57;;;;;;;;;;6100014;23;20522;-85
2022/04/18 03:53:34;;;;;;;23.52;13.70;;;;;;;;;;6100564;23;20010;-85
2022/04/18 03:56:00;;;;;;;22.17;13.70;;;;;;;;;;6100422;23;20018;-85
2022/04/18 03:58:26;;;;;;;23.27;13.40;;;;;;;;;;6099711;23;20048;-86
2022/04/18 04:00:52;;;;;;;24.17;13.93;;;;;;;;;;6099182;23;20036;-85
2022/04/18 04:03:19;;;;;;;23.17;14.30;;;;;;;;;;6100179;23;20021;-85
2022/04/18 04:05:45;;;;;;;25.33;13.02;;;;;;;;;;6101064;23;20013;-86
2022/04/18 04:08:11;;;;;;;24.10;13.95;;;;;;;;;;6076503;23;20049;-85
2022/04/18 04:10:37;;;;;;;23.58;13.55;;;;;;;;;;6100379;23;20009;-84
2022/04/18 04:13:03;;;;;;;27.85;14.27;;;;;;;;;;6100514;23;20052;-85
2022/04/18 04:15:29;;;;;;;23.77;12.82;;;6.80;75.10;;;;;;6100713;23;20447;-84
2022/04/18 04:17:55;;;;;;;25.40;13.73;;;4.80;99.90;;;;;;6099829;23;20013;-85
2022/04/18 04:20:22;;;;;;;22.30;12.73;;;4.70;99.90;;;;;;6052872;23;20017;-85
2022/04/18 04:22:49;;;;;;;22.67;14.27;;;4.70;99.90;;;;;;6054077;23;20100;-84
2022/04/18 04:25:15;;;;;;;22.15;12.65;;;4.70;99.90;;;;;;6100486;23;20013;-86
2022/04/18 04:27:41;;;;;;;19.50;12.30;;;4.60;99.90;;;;;;6052165;23;20013;-85
2022/04/18 04:30:07;;;;;;;22.52;13.13;;;4.70;99.90;;;;;;6098670;23;20053;-85
2022/04/18 04:32:33;;;;;;;21.08;13.27;;;4.60;99.90;;;;;;6099954;23;20013;-85
2022/04/18 04:34:59;;;;;;;21.80;13.18;;;4.60;99.90;;;;;;6099606;23;20497;-85
2022/04/18 04:37:25;;;;;;;22.45;13.32;;;4.60;99.90;;;;;;6098654;23;20025;-86
2022/04/18 04:39:50;;;;;;;22.23;12.77;;;4.60;99.90;;;;;;6075250;23;20021;-85
2022/04/18 04:42:17;;;;;;;19.70;12.48;;;4.60;99.90;;;;;;6075857;23;20044;-85
2022/04/18 04:44:43;;;;;;;22.88;11.98;;;4.70;99.90;;;;;;6099165;23;20013;-85
2022/04/18 04:47:09;;;;;;;20.17;10.98;;;4.60;99.90;;;;;;6074245;23;20096;-85
2022/04/18 04:49:35;;;;;;;19.40;12.02;;;4.60;99.90;;;;;;6051457;23;20037;-85
2022/04/18 04:52:01;;;;;;;21.52;12.20;;;4.70;99.90;;;;;;6098829;23;20017;-85
2022/04/18 04:54:27;;;;;;;19.88;12.38;;;4.70;99.90;;;;;;6099257;23;20020;-84
2022/04/18 04:56:52;;;;;;;19.02;11.10;;;4.70;99.90;;;;;;6104627;23;20017;-85
2022/04/18 04:59:18;;;;;;;20.00;11.75;;;4.70;99.90;;;;;;6100034;23;20020;-85
2022/04/18 05:01:44;;;;;;;17.70;11.02;;;4.80;99.90;;;;;;6098758;23;20038;-85
2022/04/18 05:04:10;;;;;;;19.23;11.55;;;4.80;99.90;;;;;;6099813;23;20022;-86
2022/04/18 05:06:35;;;;;;;18.42;11.90;;;4.90;99.90;;;;;;6075921;23;20021;-85
2022/04/18 05:09:02;;;;;;;18.33;11.32;;;4.90;99.90;;;;;;6076000;23;20053;-85
2022/04/18 05:11:27;;;;;;;18.77;11.45;;;5.00;99.90;;;;;;6051560;23;20017;-85
2022/04/18 05:13:54;;;;;;;21.05;11.82;;;5.10;99.90;;;;;;6099035;23;20363;-85
2022/04/18 05:16:20;;;;;;;19.77;11.45;;;5.10;99.90;;;;;;6123828;23;20120;-85
2022/04/18 05:18:47;;;;;;;17.67;11.40;;;5.10;99.90;;;;;;6099031;23;20013;-85
2022/04/18 05:21:13;;;;;;;21.23;11.35;;;5.10;99.90;;;;;;6099795;23;20025;-87
2022/04/18 05:23:38;;;;;;;17.60;11.55;;;5.20;99.90;;;;;;6075485;23;20017;-87
2022/04/18 05:26:04;;;;;;;17.83;10.98;;;5.30;99.90;;;;;;6099979;23;20695;-87
2022/04/18 05:28:30;;;;;;;17.08;10.90;;;5.30;99.90;;;;;;6100162;23;20127;-87
2022/04/18 05:30:58;;;;;;;17.65;11.10;;;5.40;99.90;;;;;;6101905;23;20514;-88
2022/04/18 05:33:27;;;;;;;19.60;11.13;;;5.40;99.90;;;;;;6077868;23;20017;-87
2022/04/18 05:35:53;;;;;;;17.55;10.52;;;5.50;99.90;;;;;;6101646;23;20020;-87
2022/04/18 05:38:19;;;;;;;18.67;11.18;;;;;;;;;;6101323;23;20013;-87
2022/04/18 05:40:46;;;;;;;19.10;11.07;;;;;;;;;;6100515;23;20347;-87
2022/04/18 05:43:12;;;;;;;17.15;10.98;;;;;;;;;;6100842;23;20116;-88
2022/04/18 05:45:39;;;;;;;17.58;10.93;;;;;;;;;;6101240;23;20017;-87
2022/04/18 05:48:05;;;;;;;17.20;11.25;;;;;;;;;;6099912;23;20014;-87
2022/04/18 05:50:32;;;;;;;17.42;10.10;;;;;;;;;;6100810;23;20018;-87
2022/04/18 05:52:58;;;;;;;17.50;11.57;;;;;;;;;;6100754;23;20025;-85
2022/04/18 05:55:24;;;;;;;17.23;9.90;;;;;;;;;;6100724;23;20009;-86
2022/04/18 05:57:52;;;;;;;20.35;10.55;;;5.60;99.90;;;;;;6076770;23;20455;-86
2022/04/18 06:00:19;;;;;;;15.60;10.70;;;6.20;99.90;;;;;;6100185;23;20021;-86
2022/04/18 06:02:46;;;;;;;19.08;10.65;;;6.30;99.90;;;;;;6099925;23;20085;-86
2022/04/18 06:05:12;;;;;;;21.17;11.20;;;6.40;99.90;;;;;;6100541;23;20017;-85
2022/04/18 06:07:42;;;;;;;15.38;10.82;;;6.50;99.90;;;;;;6101257;23;20022;-85
2022/04/18 06:10:09;;;;;;;17.80;11.35;;;6.60;99.90;;;;;;6101260;23;20079;-85
2022/04/18 06:12:34;;;;;;;22.90;12.02;;;6.70;99.90;;;;;;6077384;23;20010;-85
2022/04/18 06:15:01;;;;;;;20.08;11.48;;;6.80;99.90;;;;;;6077471;23;20013;-86
2022/04/18 06:17:26;;;;;;;17.42;11.25;;;6.90;99.90;;;;;;6076921;23;20017;-85
2022/04/18 06:19:52;;;;;;;18.95;11.32;;;7.00;99.90;;;;;;6101725;23;20017;-88
2022/04/18 06:22:18;;;;;;;16.13;11.23;;;;;;;;;;6100088;23;20013;-88
2022/04/18 06:24:45;;;;;;;18.13;10.40;;;;;;;;;;6100573;23;20021;-85
2022/04/18 06:27:11;;;;;;;18.23;10.30;;;;;;;;;;6099945;23;20013;-85
2022/04/18 06:29:38;;;;;;;18.58;10.55;;;;;;;;;;6100286;23;20557;-85
2022/04/18 06:32:04;;;;;;;17.17;9.88;;;;;;;;;;6100341;23;20015;-85
2022/04/18 06:34:30;;;;;;;16.27;10.20;;;;;;;;;;6101110;23;20013;-86
2022/04/18 06:36:57;;;;;;;17.48;10.52;;;;;;;;;;6076594;23;20013;-86
2022/04/18 06:39:23;;;;;;;18.42;10.68;;;;;;;;;;6100161;23;20025;-85
2022/04/18 06:41:49;;;;;;;19.02;10.70;;;;;;;;;;6102980;23;20049;-85
2022/04/18 06:44:15;;;;;;;15.75;11.10;;;;;;;;;;6100361;23;20355;-85
2022/04/18 06:46:41;;;;;;;17.65;11.30;;;7.10;99.90;;;;;;6100226;23;20852;-85
2022/04/18 06:49:07;;;;;;;15.68;10.52;;;;;;;;;;6100655;23;20022;-86
2022/04/18 06:51:33;;;;;;;19.40;11.30;;;;;;;;;;6101158;23;20020;-85
2022/04/18 06:54:00;;;;;;;17.92;10.88;;;;;;;;;;6100836;23;20013;-85
2022/04/18 06:59:13;;;;;;;15.70;10.50;;;;;;;;;;6125274;23;20096;-86
2022/04/18 07:01:40;;;;;;;19.70;11.52;;;;;;;;;;6101607;23;20469;-86
2022/04/18 07:04:07;;;;;;;18.75;10.80;;;;;;;;;;6076501;23;20024;-85
2022/04/18 07:06:33;;;;;;;16.77;11.25;;;;;;;;;;6076689;23;20016;-85
2022/04/18 07:08:59;;;;;;;16.67;10.48;;;;;;;;;;6100347;23;20024;-86
2022/04/18 07:11:25;;;;;;;17.10;10.95;;;;;;;;;;6100367;23;20398;-85
2022/04/18 07:13:52;;;;;;;16.67;10.18;;;;;;;;;;6099822;23;20017;-85
2022/04/18 07:16:18;;;;;;;17.95;10.52;;;;;;;;;;6100549;23;20103;-86
2022/04/18 07:18:44;;;;;;;16.05;10.00;;;;;;;;;;6100671;23;20443;-85
2022/04/18 07:21:10;;;;;;;18.98;10.02;;;;;;;;;;6076628;23;20076;-86
2022/04/18 07:23:36;;;;;;;16.67;9.90;;;;;;;;;;6101249;23;20014;-88
2022/04/18 07:26:03;;;;;;;15.45;9.15;;;;;;;;;;6076596;23;20060;-86
2022/04/18 07:28:29;;;;;;;18.40;9.80;;;;;;;;;;6098951;23;20053;-86
2022/04/18 07:30:55;;;;;;;24.95;9.52;;;;;;;;;;6076260;23;20443;-87
2022/04/18 07:33:21;;;;;;;16.60;9.05;;;;;;;;;;6076705;23;20010;-86
2022/04/18 07:35:47;;;;;;;12.00;8.57;;;;;;;;;;6101169;23;20092;-87
2022/04/18 07:41:18;;;;;;;13.90;8.00;;;;;;;;;;6090674;23;20026;-87
2022/04/18 07:43:45;;;;;;;13.27;8.38;;;;;;;;;;6043292;23;20015;-88
2022/04/18 07:46:17;;;;;;;13.88;8.48;;;;;;;;;;6066142;23;20010;-86
2022/04/18 07:48:44;;;;;;;16.48;8.02;;;;;;;;;;6044580;23;20018;-87
2022/04/18 07:53:55;;;;;;;15.30;8.13;;;;;;;;;;6069493;23;20464;-86
2022/04/18 07:56:24;;;;;;;13.32;8.60;;;;;;;;;;6044283;23;20126;-88
2022/04/18 07:58:51;;;;;;;11.95;8.02;;;8.00;95.40;;;;;;6065846;23;20018;-87
2022/04/18 08:01:18;;;;;;;15.55;7.65;;;;;;;;;;6065522;23;20025;-87
2022/04/18 08:03:44;;;;;;;12.35;7.63;;;;;;;;;;6041747;23;20049;-88
2022/04/18 08:06:10;;;;;;;11.45;7.25;;;;;;;;;;6066423;23;20066;-87
2022/04/18 08:08:36;;;;;;;13.93;7.57;;;;;;;;;;6041866;23;20065;-89
2022/04/18 08:11:03;;;;;;;15.20;6.22;;;;;;;;;;6042378;23;20021;-88
2022/04/18 08:13:29;;;;;;;12.95;7.03;;;;;;;;;;6067477;23;20022;-88
2022/04/18 08:15:56;;;;;;;9.63;6.82;;;;;;;;;;6066990;23;20456;-88
2022/04/18 08:18:22;;;;;;;13.32;6.47;;;11.70;63.80;;;;;;6068231;23;20022;-89
2022/04/18 08:20:49;;;;;;;11.18;6.30;;;12.60;58.80;;;;;;6067263;23;20094;-90
2022/04/18 08:23:16;;;;;;;9.95;6.22;;;12.80;57.40;;;;;;6043314;23;20011;-88
2022/04/18 08:25:42;;;;;;;10.40;6.10;;;12.90;57.60;;;;;;6043853;23;20747;-91
2022/04/18 08:28:08;;;;;;;13.23;6.60;;;12.90;56.80;;;;;;6068512;23;20018;-91
2022/04/18 08:30:34;;;;;;;10.30;6.53;;;13.00;55.90;;;;;;6044107;23;20591;-89
2022/04/18 08:33:00;;;;;;;11.00;6.38;;;13.10;55.40;;;;;;6043211;23;20015;-88
2022/04/18 08:35:26;;;;;;;11.85;6.13;;;13.10;55.60;;;;;;6066564;23;20017;-89
2022/04/18 08:37:52;;;;;;;10.25;6.32;;;13.20;56.30;;;;;;6042459;23;20025;-87
2022/04/18 08:40:21;;;;;;;10.25;6.53;;;;;;;;;;6020352;23;20049;-87
2022/04/18 08:42:54;;;;;;;8.20;5.82;;;;;;;;;;6020616;23;20025;-88
2022/04/18 08:45:23;;;;;;;11.05;6.40;;;;;;;;;;6065826;23;20018;-89
2022/04/18 08:53:24;;;;;;;8.65;6.10;;;;;;;;;;6065728;23;20026;-89
2022/04/18 08:55:51;;;;;;;9.43;6.60;;;;;;;;;;6066153;23;20061;-87
2022/04/18 08:58:21;;;;;;;11.52;7.15;;;13.40;56.10;;;;;;6067707;23;20014;-88
2022/04/18 09:00:47;;;;;;;10.68;6.90;;;14.30;54.90;;;;;;6043202;23;20018;-88
2022/04/18 09:03:13;;;;;;;9.88;6.50;;;14.30;55.00;;;;;;6042284;23;20015;-87
2022/04/18 09:05:39;;;;;;;9.77;6.25;;;14.50;55.10;;;;;;6044683;23;20025;-90
2022/04/18 09:08:07;;;;;;;9.23;6.35;;;14.50;53.50;;;;;;6044396;23;20113;-87
2022/04/18 09:10:34;;;;;;;7.50;6.00;;;14.60;53.90;;;;;;5996458;23;20049;-88
2022/04/18 09:13:06;;;;;;;9.65;6.70;;;;;;;;;;5998088;23;20018;-87
2022/04/18 09:15:37;;;;;;;12.95;6.60;;;14.70;54.50;;;;;;6070374;23;20685;-89
2022/04/18 09:18:10;;;;;;;9.82;6.38;;;14.90;53.70;;;;;;6044577;23;20021;-88
2022/04/18 09:20:51;;;;;;;9.82;6.25;;;14.90;53.10;;;;;;6066855;23;20025;-89
2022/04/18 09:23:22;;;;;;;9.13;6.30;;;15.00;53.60;;;;;;6049812;23;20014;-88
2022/04/18 09:25:55;;;;;;;8.88;5.80;;;15.00;52.40;;;;;;6068199;23;20545;-88
2022/04/18 09:28:27;;;;;;;9.52;5.90;;;15.10;52.50;;;;;;6043307;23;20040;-90
2022/04/18 09:31:13;;;;;;;10.68;6.28;;;15.20;52.10;;;;;;6044212;23;20376;-88
2022/04/18 09:33:41;;;;;;;9.15;6.25;;;15.30;51.50;;;;;;6044500;23;20020;-89
2022/04/18 09:36:16;;;;;;;10.60;6.60;;;15.40;51.70;;;;;;6048929;23;20693;-87
2022/04/18 09:38:54;;;;;;;8.30;6.20;;;15.50;51.30;;;;;;6075358;23;20096;-89
2022/04/18 09:41:31;;;;;;;9.82;6.82;;;15.50;51.00;;;;;;6074386;23;20439;-88
2022/04/18 09:43:58;;;;;;;10.75;7.03;;;15.60;50.80;;;;;;6074453;23;20025;-89
2022/04/18 09:46:24;;;;;;;11.07;7.10;;;15.60;51.80;;;;;;6048875;23;20093;-88
2022/04/18 09:48:52;;;;;;;9.55;6.72;;;15.70;51.90;;;;;;6095985;23;20451;-88
2022/04/18 09:51:25;;;;;;;12.02;6.72;;;15.80;51.60;;;;;;6075053;23;20347;-89
2022/04/18 09:53:57;;;;;;;8.88;6.43;;;15.90;51.00;;;;;;6072382;23;20010;-89
2022/04/18 09:56:24;;;;;;;14.30;7.05;;;16.00;51.10;;;;;;6052691;23;20013;-88
2022/04/18 09:58:50;;;;;;;11.15;6.20;;;16.10;50.70;;;;;;6075501;23;20018;-87
2022/04/18 10:01:16;;;;;;;9.95;6.75;;;16.20;50.40;;;;;;6074899;23;20097;-86
2022/04/18 10:03:43;;;;;;;10.45;6.53;;;16.30;50.20;;;;;;6049360;23;20360;-88
2022/04/18 10:06:10;;;;;;;10.10;6.35;;;;;;;;;;6072795;23;20025;-87
2022/04/18 10:08:37;;;;;;;6.80;5.55;;;;;;;;;;6049038;23;20647;-88
2022/04/18 10:11:04;;;;;;;11.73;5.97;;;;;;;;;;6048498;23;20097;-87
2022/04/18 10:13:31;;;;;;;8.73;6.53;;;;;;;;;;6072979;23;20017;-87
2022/04/18 10:15:58;;;;;;;9.73;6.47;;;;;;;;;;6073800;23;20014;-87
2022/04/18 10:18:28;;;;;;;8.40;6.32;;;;;;;;;;6072460;23;20013;-91
2022/04/18 10:20:57;;;;;;;8.13;5.65;;;;;;;;;;6073244;23;20372;-87
2022/04/18 10:23:42;;;;;;;8.65;6.05;;;;;;;;;;6072203;23;20025;-88
2022/04/18 10:26:12;;;;;;;8.30;5.60;;;;;;;;;;6073347;23;20014;-89
2022/04/18 10:28:42;;;;;;;8.25;5.97;;;;;;;;;;6073593;23;20049;-90
2022/04/18 10:31:10;;;;;;;10.30;5.90;;;;;;;;;;6075838;23;20018;-87
2022/04/18 10:33:37;;;;;;;9.70;6.45;;;;;;;;;;6073086;23;20080;-88
2022/04/18 10:36:04;;;;;;;8.50;6.15;;;;;;;;;;6073375;23;20395;-87
2022/04/18 10:38:36;;;;;;;7.43;5.93;;;;;;;;;;6077188;23;20025;-88
2022/04/18 10:41:25;;;;;;;6.95;5.10;;;;;;;;;;6073172;23;20020;-86
2022/04/18 10:44:10;;;;;;;9.18;5.65;;;;;;;;;;6072159;23;20013;-86
2022/04/18 10:47:05;;;;;;;9.82;5.57;;;;;;;;;;6073162;23;20069;-88
2022/04/18 10:49:32;;;;;;;6.90;5.30;;;;;;;;;;6071019;23;20018;-87
2022/04/18 10:52:07;;;;;;;9.20;5.88;;;;;;;;;;6072775;23;20013;-87
2022/04/18 10:54:34;;;;;;;5.45;4.30;;;;;;;;;;6076713;23;20021;-90
2022/04/18 10:57:11;;;;;;;6.65;4.28;;;;;;;;;;6050503;23;20024;-87
2022/04/18 10:59:46;;;;;;;5.97;4.10;;;;;;;;;;6072874;23;20018;-87
2022/04/18 11:02:31;;;;;;;7.90;4.32;;;;;;;;;;6074311;23;20040;-88
2022/04/18 11:04:57;;;;;;;5.85;4.85;;;;;;;;;;6072691;23;20018;-87
2022/04/18 11:07:37;;;;;;;7.57;4.20;;;;;;;;;;6047746;23;20010;-90
2022/04/18 11:10:18;;;;;;;6.07;4.20;;;;;;;;;;6070791;23;20621;-88
2022/04/18 11:12:48;;;;;;;5.22;4.13;;;;;;;;;;6074497;23;20456;-92
2022/04/18 11:15:23;;;;;;;6.57;4.20;;;;;;;;;;6050741;23;20018;-91
2022/04/18 11:18:02;;;;;;;7.22;3.97;;;;;;;;;;6100821;23;20451;-89
2022/04/18 11:20:38;;;;;;;4.70;3.72;;;;;;;;;;6075648;23;20018;-89
2022/04/18 11:23:34;;;;;;;5.50;4.10;;;;;;;;;;6074897;23;20549;-90
2022/04/18 11:26:05;;;;;;;6.82;4.47;;;;;;;;;;6073173;23;20029;-89
2022/04/18 11:28:33;;;;;;;6.40;4.10;;;;;;;;;;6071324;23;20096;-88
2022/04/18 11:30:59;;;;;;;6.43;4.22;;;;;;;;;;6074462;23;20800;-88
2022/04/18 11:33:25;;;;;;;5.97;4.20;;;16.30;50.80;;;;;;6073055;23;20020;-88
2022/04/18 11:36:05;;;;;;;6.13;4.15;;;18.80;41.30;;;;;;6052424;23;20070;-91
2022/04/18 11:38:34;;;;;;;5.82;4.00;;;18.90;41.10;;;;;;6073354;23;20402;-91
2022/04/18 11:41:10;;;;;;;7.55;4.70;;;19.00;40.20;;;;;;6074669;23;20632;-88
2022/04/18 11:43:36;;;;;;;8.55;4.75;;;19.10;39.80;;;;;;6073607;23;20010;-88
2022/04/18 11:46:07;;;;;;;5.78;4.15;;;19.20;40.20;;;;;;6047791;23;20505;-89
2022/04/18 11:48:34;;;;;;;7.05;4.18;;;19.30;39.80;;;;;;6046807;23;20022;-88
2022/04/18 11:51:00;;;;;;;6.13;4.75;;;19.30;39.90;;;;;;6071901;23;20066;-88
2022/04/18 11:53:33;;;;;;;8.77;4.40;;;19.30;40.30;;;;;;6049874;23;20127;-88
2022/04/18 11:56:03;;;;;;;7.47;4.70;;;;;;;;;;6048657;23;20455;-89
2022/04/18 11:58:29;;;;;;;6.93;4.45;;;;;;;;;;6070551;23;20018;-89
2022/04/18 12:09:14;;;;;;;5.95;4.05;;;;;;;;;;6075280;23;20753;-88
2022/04/18 12:11:40;;;;;;;10.95;5.18;;;19.50;39.70;;;;;;6070712;23;20010;-91
2022/04/18 12:14:06;;;;;;;6.97;4.82;;;20.30;39.60;;;;;;6046875;23;20105;-90
2022/04/18 12:16:33;;;;;;;5.70;4.40;;;;;;;;;;6071472;23;20478;-91
2022/04/18 12:19:00;;;;;;;5.22;4.00;;;;;;;;;;6071862;23;20064;-89
2022/04/18 12:21:37;;;;;;;6.63;4.72;;;;;;;;;;6072806;23;20069;-89
2022/04/18 12:24:04;;;;;;;5.90;4.60;;;;;;;;;;6046631;23;20466;-90
2022/04/18 12:26:31;;;;;;;5.68;4.53;;;;;;;;;;6046976;23;20045;-89
2022/04/18 12:29:01;;;;;;;4.85;4.03;;;;;;;;;;6068085;23;20017;-87
2022/04/18 12:31:27;;;;;;;6.47;3.90;;;;;;;;;;6064553;23;20093;-85
2022/04/18 12:33:54;;;;;;;7.95;4.28;;;;;;;;;;6070099;23;20021;-86
2022/04/18 12:36:28;;;;;;;5.18;4.63;;;20.40;38.70;;;;;;6071682;23;20036;-86
2022/04/18 12:38:54;;;;;;;5.50;4.07;;;22.10;36.70;;;;;;6073880;23;20633;-89
2022/04/18 12:41:27;;;;;;;6.00;4.18;;;;;;;;;;6053126;23;20022;-89
2022/04/18 12:43:53;;;;;;;7.22;4.43;;;;;;;;;;6075231;23;20077;-87
2022/04/18 12:46:25;;;;;;;8.57;4.97;;;;;;;;;;6074355;23;20014;-89
2022/04/18 12:48:51;;;;;;;6.35;4.97;;;;;;;;;;6073955;23;20014;-87
2022/04/18 12:51:18;;;;;;;6.75;4.60;;;;;;;;;;6048037;23;20455;-87
2022/04/18 12:53:45;;;;;;;6.07;4.70;;;;;;;;;;6072997;23;20653;-85
2022/04/18 12:56:13;;;;;;;8.50;4.93;;;;;;;;;;6070493;23;20018;-84
2022/04/18 12:58:40;;;;;;;7.05;4.68;;;;;;;;;;6067216;23;20017;-86
2022/04/18 13:01:06;;;;;;;5.57;4.07;;;;;;;;;;6045803;23;20050;-86
2022/04/18 13:03:42;;;;;;;5.20;4.15;;;;;;;;;;6070376;23;20022;-85
2022/04/18 13:06:08;;;;;;;5.28;3.70;;;22.10;37.10;;;;;;6073207;23;20021;-88
2022/04/18 13:08:39;;;;;;;5.47;4.32;;;21.90;35.30;;;;;;6047791;23;20025;-87
2022/04/18 13:11:05;;;;;;;5.65;3.78;;;22.20;34.90;;;;;;6072044;23;20052;-88
2022/04/18 13:13:31;;;;;;;8.30;5.43;;;22.30;34.70;;;;;;6052341;23;20014;-89
2022/04/18 13:15:58;;;;;;;5.88;3.97;;;;;;;;;;6050279;23;20049;-87
2022/04/18 13:18:26;;;;;;;5.20;4.22;;;22.30;34.40;;;;;;6071254;23;20123;-90
2022/04/18 13:20:55;;;;;;;6.70;4.47;;;22.70;33.50;;;;;;6047678;23;20010;-85
2022/04/18 13:23:22;;;;;;;5.32;4.40;;;;;;;;;;6046789;23;20032;-86
2022/04/18 13:25:48;;;;;;;5.22;4.22;;;;;;;;;;6048418;23;20014;-88
2022/04/18 13:28:15;;;;;;;5.18;4.20;;;22.90;33.50;;;;;;6048760;23;20010;-85
2022/04/18 13:30:42;;;;;;;4.72;3.90;;;23.60;33.50;;;;;;6068641;23;20100;-84
2022/04/18 13:33:09;;;;;;;4.30;3.90;;;;;;;;;;6070998;23;20029;-86
2022/04/18 13:38:24;;;;;;;6.53;4.30;;;;;;;;;;6091008;23;20049;-86
2022/04/18 13:40:51;;;;;;;5.43;4.00;;;;;;;;;;6064077;23;20013;-85
2022/04/18 13:43:17;;;;;;;5.28;4.22;;;;;;;;;;6093219;23;20053;-87
2022/04/18 13:45:44;;;;;;;6.43;4.00;;;;;;;;;;6069452;23;20020;-87
2022/04/18 13:48:10;;;;;;;6.93;4.10;;;;;;;;;;6046182;23;20017;-89
2022/04/18 13:50:36;;;;;;;4.22;3.83;;;;;;;;;;6042127;23;20405;-88
2022/04/18 13:53:03;;;;;;;7.53;4.28;;;;;;;;;;6045029;23;20021;-87
2022/04/18 13:55:29;;;;;;;6.05;4.20;;;23.60;33.80;;;;;;6043793;23;20010;-89
2022/04/18 13:57:56;;;;;;;5.80;4.28;;;27.70;31.30;;;;;;6045655;23;20344;-87
2022/04/18 14:00:22;;;;;;;7.10;4.50;;;28.10;30.60;;;;;;6042616;23;20024;-90
2022/04/18 14:02:48;;;;;;;6.75;3.88;;;28.10;30.10;;;;;;6066876;23;20101;-87
2022/04/18 14:05:14;;;;;;;6.63;4.63;;;;;;;;;;6068411;23;20041;-89
2022/04/18 14:07:40;;;;;;;5.13;4.05;;;28.50;30.00;;;;;;6066884;23;20872;-89
2022/04/18 14:10:07;;;;;;;5.65;4.07;;;28.40;29.50;;;;;;6042138;23;20779;-86
2022/04/18 14:12:33;;;;;;;6.43;4.30;;;28.30;29.10;;;;;;6043274;23;20025;-88
2022/04/18 14:20:34;;;;;;;6.10;4.13;;;30.90;28.80;;;;;;6078774;23;20032;-90
2022/04/18 14:23:01;;;;;;;5.07;4.10;;;30.80;27.90;;;;;;6042728;23;20029;-86
2022/04/18 14:25:28;;;;;;;4.40;4.00;;;30.90;28.80;;;;;;6044708;23;20018;-90
2022/04/18 14:27:54;;;;;;;5.35;4.38;;;31.20;28.40;;;;;;6068740;23;20017;-87
2022/04/18 14:30:20;;;;;;;4.22;3.83;;;31.40;27.80;;;;;;6043607;23;20021;-90